Blacksburg, South Carolina
Current Conditions -  °F | °C
As of 10:55 PM on Friday 28 Nov 2014 (Local Time) from KEHO Reporting Station
Clear Clear  
Wind Chill: 34°   Ceiling: Unl
Heat Index: 34°   Visibility: 10mi
Dew Point: 21°   Wind: 3mph
Humidity: 59%   Direction: 170°S
Pressure: 30.27"   Gusts: NA
Location:  35.12°N, 81.52°W
Report Text: KEHO 290355Z AUTO 17003KT 10SM CLR 01/M06 A3027 RMK AO2 T00121060
Loading
Personal Weather Stations






























Interactive Weather Map New forecast layout! Learn more

10-Day Weather Forecast

Advertisements
Track Severe Weather on mobile